sensor_id;sensor_type;location;lat;lon;timestamp;temperature;humidity
18934;DHT22;9599;53.706;10.384;2022-12-18T00:01:26;-3.90;99.90
18934;DHT22;9599;53.706;10.384;2022-12-18T00:03:55;-3.90;99.90
18934;DHT22;9599;53.706;10.384;2022-12-18T00:06:24;-3.90;99.90
18934;DHT22;9599;53.706;10.384;2022-12-18T00:08:55;-3.90;99.90
18934;DHT22;9599;53.706;10.384;2022-12-18T00:11:25;-3.90;99.90
18934;DHT22;9599;53.706;10.384;2022-12-18T00:13:56;-3.90;99.90
18934;DHT22;9599;53.706;10.384;2022-12-18T00:16:25;-3.90;99.90
18934;DHT22;9599;53.706;10.384;2022-12-18T00:18:55;-3.90;99.90
18934;DHT22;9599;53.706;10.384;2022-12-18T00:21:27;-3.90;99.90
18934;DHT22;9599;53.706;10.384;2022-12-18T00:23:57;-4.00;99.90
18934;DHT22;9599;53.706;10.384;2022-12-18T00:26:27;-4.00;99.90
18934;DHT22;9599;53.706;10.384;2022-12-18T00:28:59;-4.00;99.90
18934;DHT22;9599;53.706;10.384;2022-12-18T00:31:29;-4.00;99.90
18934;DHT22;9599;53.706;10.384;2022-12-18T00:34:00;-4.00;99.90
18934;DHT22;9599;53.706;10.384;2022-12-18T00:36:31;-4.00;99.90
18934;DHT22;9599;53.706;10.384;2022-12-18T00:39:03;-4.00;99.90
18934;DHT22;9599;53.706;10.384;2022-12-18T00:41:32;-4.00;99.90
18934;DHT22;9599;53.706;10.384;2022-12-18T00:44:18;-4.10;99.90
18934;DHT22;9599;53.706;10.384;2022-12-18T00:46:47;-4.10;99.90
18934;DHT22;9599;53.706;10.384;2022-12-18T00:49:16;-4.20;99.90
18934;DHT22;9599;53.706;10.384;2022-12-18T00:51:45;-4.20;99.90
18934;DHT22;9599;53.706;10.384;2022-12-18T00:54:15;-4.10;99.90
18934;DHT22;9599;53.706;10.384;2022-12-18T00:56:43;-4.10;99.90
18934;DHT22;9599;53.706;10.384;2022-12-18T00:59:16;-4.20;99.90
18934;DHT22;9599;53.706;10.384;2022-12-18T01:01:45;-4.20;99.90
18934;DHT22;9599;53.706;10.384;2022-12-18T01:04:13;-4.20;99.90
18934;DHT22;9599;53.706;10.384;2022-12-18T01:06:44;-4.30;99.90
18934;DHT22;9599;53.706;10.384;2022-12-18T01:09:14;-4.30;99.90
18934;DHT22;9599;53.706;10.384;2022-12-18T01:11:42;-4.40;99.90
18934;DHT22;9599;53.706;10.384;2022-12-18T01:14:10;-4.40;99.90
18934;DHT22;9599;53.706;10.384;2022-12-18T01:16:38;-4.40;99.90
18934;DHT22;9599;53.706;10.384;2022-12-18T01:19:06;-4.40;99.90
18934;DHT22;9599;53.706;10.384;2022-12-18T01:21:34;-4.40;99.90
18934;DHT22;9599;53.706;10.384;2022-12-18T01:24:04;-4.50;99.90
18934;DHT22;9599;53.706;10.384;2022-12-18T01:26:34;-4.50;99.90
18934;DHT22;9599;53.706;10.384;2022-12-18T01:29:02;-4.40;99.90
18934;DHT22;9599;53.706;10.384;2022-12-18T01:31:31;-4.50;99.90
18934;DHT22;9599;53.706;10.384;2022-12-18T01:34:02;-4.50;99.90
18934;DHT22;9599;53.706;10.384;2022-12-18T01:36:35;-4.50;99.90
18934;DHT22;9599;53.706;10.384;2022-12-18T01:39:07;-4.60;99.90
18934;DHT22;9599;53.706;10.384;2022-12-18T01:41:38;-4.50;99.90
18934;DHT22;9599;53.706;10.384;2022-12-18T01:47:35;-4.50;99.90
18934;DHT22;9599;53.706;10.384;2022-12-18T01:50:08;-4.60;99.90
18934;DHT22;9599;53.706;10.384;2022-12-18T01:52:40;-4.60;99.90
18934;DHT22;9599;53.706;10.384;2022-12-18T01:55:09;-4.60;99.90
18934;DHT22;9599;53.706;10.384;2022-12-18T01:57:39;-4.60;99.90
18934;DHT22;9599;53.706;10.384;2022-12-18T02:00:10;-4.60;99.90
18934;DHT22;9599;53.706;10.384;2022-12-18T02:02:40;-4.50;99.90
18934;DHT22;9599;53.706;10.384;2022-12-18T02:05:09;-4.50;99.90
18934;DHT22;9599;53.706;10.384;2022-12-18T02:07:43;-4.50;99.90
18934;DHT22;9599;53.706;10.384;2022-12-18T02:10:17;-4.50;99.90
18934;DHT22;9599;53.706;10.384;2022-12-18T02:12:56;-4.50;99.90
18934;DHT22;9599;53.706;10.384;2022-12-18T02:15:29;-4.50;99.90
18934;DHT22;9599;53.706;10.384;2022-12-18T02:18:04;-4.50;99.90
18934;DHT22;9599;53.706;10.384;2022-12-18T02:20:35;-4.50;99.90
18934;DHT22;9599;53.706;10.384;2022-12-18T02:23:12;-4.50;99.90
18934;DHT22;9599;53.706;10.384;2022-12-18T02:26:04;-4.50;99.90
18934;DHT22;9599;53.706;10.384;2022-12-18T02:28:39;-4.50;99.90
18934;DHT22;9599;53.706;10.384;2022-12-18T02:31:11;-4.50;99.90
18934;DHT22;9599;53.706;10.384;2022-12-18T02:33:43;-4.60;99.90
18934;DHT22;9599;53.706;10.384;2022-12-18T02:36:13;-4.70;99.90
18934;DHT22;9599;53.706;10.384;2022-12-18T02:38:44;-4.70;99.90
18934;DHT22;9599;53.706;10.384;2022-12-18T02:41:16;-4.80;99.90
18934;DHT22;9599;53.706;10.384;2022-12-18T02:43:59;-4.80;99.90
18934;DHT22;9599;53.706;10.384;2022-12-18T02:46:33;-4.80;99.90
18934;DHT22;9599;53.706;10.384;2022-12-18T02:49:26;-4.70;99.90
18934;DHT22;9599;53.706;10.384;2022-12-18T02:52:07;-4.70;99.90
18934;DHT22;9599;53.706;10.384;2022-12-18T02:54:49;-4.70;99.90
18934;DHT22;9599;53.706;10.384;2022-12-18T02:57:25;-4.70;99.90
18934;DHT22;9599;53.706;10.384;2022-12-18T03:00:00;-4.70;99.90
18934;DHT22;9599;53.706;10.384;2022-12-18T03:02:36;-4.70;99.90
18934;DHT22;9599;53.706;10.384;2022-12-18T03:05:11;-4.70;99.90
18934;DHT22;9599;53.706;10.384;2022-12-18T03:07:46;-4.70;99.90
18934;DHT22;9599;53.706;10.384;2022-12-18T03:10:20;-4.70;99.90
18934;DHT22;9599;53.706;10.384;2022-12-18T03:12:56;-4.70;99.90
18934;DHT22;9599;53.706;10.384;2022-12-18T03:15:29;-4.70;99.90
18934;DHT22;9599;53.706;10.384;2022-12-18T03:18:10;-4.80;99.90
18934;DHT22;9599;53.706;10.384;2022-12-18T03:20:41;-4.80;99.90
18934;DHT22;9599;53.706;10.384;2022-12-18T03:23:17;-4.90;99.90
18934;DHT22;9599;53.706;10.384;2022-12-18T03:25:55;-4.90;99.90
18934;DHT22;9599;53.706;10.384;2022-12-18T03:28:35;-4.90;99.90
18934;DHT22;9599;53.706;10.384;2022-12-18T03:31:09;-4.90;99.90
18934;DHT22;9599;53.706;10.384;2022-12-18T03:33:42;-4.90;99.90
18934;DHT22;9599;53.706;10.384;2022-12-18T03:36:14;-4.90;99.90
18934;DHT22;9599;53.706;10.384;2022-12-18T03:38:42;-4.90;99.90
18934;DHT22;9599;53.706;10.384;2022-12-18T03:41:16;-4.90;99.90
18934;DHT22;9599;53.706;10.384;2022-12-18T03:44:21;-4.90;99.90
18934;DHT22;9599;53.706;10.384;2022-12-18T03:46:58;-4.90;99.90
18934;DHT22;9599;53.706;10.384;2022-12-18T03:49:33;-4.90;99.90
18934;DHT22;9599;53.706;10.384;2022-12-18T03:52:06;-4.90;99.90
18934;DHT22;9599;53.706;10.384;2022-12-18T03:54:39;-4.90;99.90
18934;DHT22;9599;53.706;10.384;2022-12-18T03:57:15;-4.90;99.90
18934;DHT22;9599;53.706;10.384;2022-12-18T03:59:47;-4.80;99.90
18934;DHT22;9599;53.706;10.384;2022-12-18T04:02:18;-4.90;99.90
18934;DHT22;9599;53.706;10.384;2022-12-18T04:04:51;-4.90;99.90
18934;DHT22;9599;53.706;10.384;2022-12-18T04:07:20;-4.90;99.90
18934;DHT22;9599;53.706;10.384;2022-12-18T04:09:51;-5.00;99.90
18934;DHT22;9599;53.706;10.384;2022-12-18T04:12:24;-5.00;99.90
18934;DHT22;9599;53.706;10.384;2022-12-18T04:14:53;-4.90;99.90
18934;DHT22;9599;53.706;10.384;2022-12-18T04:17:22;-5.00;99.90
18934;DHT22;9599;53.706;10.384;2022-12-18T04:19:51;-5.00;99.90
18934;DHT22;9599;53.706;10.384;2022-12-18T04:22:19;-5.00;99.90
18934;DHT22;9599;53.706;10.384;2022-12-18T04:24:53;-4.90;99.90
18934;DHT22;9599;53.706;10.384;2022-12-18T04:27:29;-5.00;99.90
18934;DHT22;9599;53.706;10.384;2022-12-18T04:30:00;-4.90;99.90
18934;DHT22;9599;53.706;10.384;2022-12-18T04:32:29;-5.00;99.90
18934;DHT22;9599;53.706;10.384;2022-12-18T04:34:59;-5.00;99.90
18934;DHT22;9599;53.706;10.384;2022-12-18T04:37:27;-4.90;99.90
18934;DHT22;9599;53.706;10.384;2022-12-18T04:39:54;-5.00;99.90
18934;DHT22;9599;53.706;10.384;2022-12-18T04:42:31;-5.00;99.90
18934;DHT22;9599;53.706;10.384;2022-12-18T04:45:00;-5.00;99.90
18934;DHT22;9599;53.706;10.384;2022-12-18T04:47:28;-5.00;99.90
18934;DHT22;9599;53.706;10.384;2022-12-18T04:49:56;-5.10;99.90
18934;DHT22;9599;53.706;10.384;2022-12-18T04:52:24;-5.10;99.90
18934;DHT22;9599;53.706;10.384;2022-12-18T04:54:52;-5.10;99.90
18934;DHT22;9599;53.706;10.384;2022-12-18T04:57:19;-5.10;99.90
18934;DHT22;9599;53.706;10.384;2022-12-18T04:59:47;-5.20;99.90
18934;DHT22;9599;53.706;10.384;2022-12-18T05:02:16;-5.10;99.90
18934;DHT22;9599;53.706;10.384;2022-12-18T05:04:45;-5.20;99.90
18934;DHT22;9599;53.706;10.384;2022-12-18T05:07:12;-5.10;99.90
18934;DHT22;9599;53.706;10.384;2022-12-18T05:09:40;-5.10;99.90
18934;DHT22;9599;53.706;10.384;2022-12-18T05:12:08;-5.20;99.90
18934;DHT22;9599;53.706;10.384;2022-12-18T05:14:36;-5.20;99.90
18934;DHT22;9599;53.706;10.384;2022-12-18T05:17:04;-5.20;99.90
18934;DHT22;9599;53.706;10.384;2022-12-18T05:19:33;-5.20;99.90
18934;DHT22;9599;53.706;10.384;2022-12-18T05:22:01;-5.20;99.90
18934;DHT22;9599;53.706;10.384;2022-12-18T05:24:32;-5.20;99.90
18934;DHT22;9599;53.706;10.384;2022-12-18T05:27:00;-5.20;99.90
18934;DHT22;9599;53.706;10.384;2022-12-18T05:29:28;-5.20;99.90
18934;DHT22;9599;53.706;10.384;2022-12-18T05:31:56;-5.20;99.90
18934;DHT22;9599;53.706;10.384;2022-12-18T05:34:24;-5.20;99.90
18934;DHT22;9599;53.706;10.384;2022-12-18T05:36:53;-5.30;99.90
18934;DHT22;9599;53.706;10.384;2022-12-18T05:39:21;-5.30;99.90
18934;DHT22;9599;53.706;10.384;2022-12-18T05:41:49;-5.30;99.90
18934;DHT22;9599;53.706;10.384;2022-12-18T05:44:16;-5.40;99.90
18934;DHT22;9599;53.706;10.384;2022-12-18T05:46:44;-5.40;99.90
18934;DHT22;9599;53.706;10.384;2022-12-18T05:49:12;-5.40;99.90
18934;DHT22;9599;53.706;10.384;2022-12-18T05:51:40;-5.40;99.90
18934;DHT22;9599;53.706;10.384;2022-12-18T05:54:09;-5.40;99.90
18934;DHT22;9599;53.706;10.384;2022-12-18T05:56:38;-5.40;99.90
18934;DHT22;9599;53.706;10.384;2022-12-18T05:59:12;-5.40;99.90
18934;DHT22;9599;53.706;10.384;2022-12-18T06:01:41;-5.40;99.90
18934;DHT22;9599;53.706;10.384;2022-12-18T06:04:09;-5.40;99.90
18934;DHT22;9599;53.706;10.384;2022-12-18T06:06:37;-5.40;99.90
18934;DHT22;9599;53.706;10.384;2022-12-18T06:09:05;-5.40;99.90
18934;DHT22;9599;53.706;10.384;2022-12-18T06:11:37;-5.50;99.90
18934;DHT22;9599;53.706;10.384;2022-12-18T06:14:06;-5.50;99.90
18934;DHT22;9599;53.706;10.384;2022-12-18T06:16:34;-5.50;99.90
18934;DHT22;9599;53.706;10.384;2022-12-18T06:19:04;-5.60;99.90
18934;DHT22;9599;53.706;10.384;2022-12-18T06:21:32;-5.60;99.90
18934;DHT22;9599;53.706;10.384;2022-12-18T06:24:01;-5.70;99.90
18934;DHT22;9599;53.706;10.384;2022-12-18T06:26:29;-5.70;99.90
18934;DHT22;9599;53.706;10.384;2022-12-18T06:28:58;-5.60;99.90
18934;DHT22;9599;53.706;10.384;2022-12-18T06:31:26;-5.60;99.90
18934;DHT22;9599;53.706;10.384;2022-12-18T06:33:55;-5.60;99.90
18934;DHT22;9599;53.706;10.384;2022-12-18T06:36:23;-5.70;99.90
18934;DHT22;9599;53.706;10.384;2022-12-18T06:38:50;-5.70;99.90
18934;DHT22;9599;53.706;10.384;2022-12-18T06:41:20;-5.70;99.90
18934;DHT22;9599;53.706;10.384;2022-12-18T06:43:48;-5.70;99.90
18934;DHT22;9599;53.706;10.384;2022-12-18T06:46:17;-5.70;99.90
18934;DHT22;9599;53.706;10.384;2022-12-18T06:48:47;-5.70;99.90
18934;DHT22;9599;53.706;10.384;2022-12-18T06:53:46;-5.70;99.90
18934;DHT22;9599;53.706;10.384;2022-12-18T06:56:14;-5.70;99.90
18934;DHT22;9599;53.706;10.384;2022-12-18T06:58:42;-5.80;99.90
18934;DHT22;9599;53.706;10.384;2022-12-18T07:01:11;-5.80;99.90
18934;DHT22;9599;53.706;10.384;2022-12-18T07:03:41;-5.80;99.90
18934;DHT22;9599;53.706;10.384;2022-12-18T07:06:14;-5.80;99.90
18934;DHT22;9599;53.706;10.384;2022-12-18T07:08:42;-5.80;99.90
18934;DHT22;9599;53.706;10.384;2022-12-18T07:11:10;-5.80;99.90
18934;DHT22;9599;53.706;10.384;2022-12-18T07:13:38;-5.80;99.90
18934;DHT22;9599;53.706;10.384;2022-12-18T07:16:09;-5.80;99.90
18934;DHT22;9599;53.706;10.384;2022-12-18T07:18:49;-5.80;99.90
18934;DHT22;9599;53.706;10.384;2022-12-18T07:21:18;-5.80;99.90
18934;DHT22;9599;53.706;10.384;2022-12-18T07:23:46;-5.70;99.90
18934;DHT22;9599;53.706;10.384;2022-12-18T07:26:16;-5.80;99.90
18934;DHT22;9599;53.706;10.384;2022-12-18T07:28:45;-5.70;99.90
18934;DHT22;9599;53.706;10.384;2022-12-18T07:31:15;-5.70;99.90
18934;DHT22;9599;53.706;10.384;2022-12-18T07:33:45;-5.70;99.90
18934;DHT22;9599;53.706;10.384;2022-12-18T07:36:14;-5.70;99.90
18934;DHT22;9599;53.706;10.384;2022-12-18T07:38:42;-5.70;99.90
18934;DHT22;9599;53.706;10.384;2022-12-18T07:41:12;-5.70;99.90
18934;DHT22;9599;53.706;10.384;2022-12-18T07:43:41;-5.70;99.90
18934;DHT22;9599;53.706;10.384;2022-12-18T07:46:10;-5.70;99.90
18934;DHT22;9599;53.706;10.384;2022-12-18T07:48:40;-5.70;99.90
18934;DHT22;9599;53.706;10.384;2022-12-18T07:51:14;-5.70;99.90
18934;DHT22;9599;53.706;10.384;2022-12-18T07:53:42;-5.70;99.90
18934;DHT22;9599;53.706;10.384;2022-12-18T07:56:11;-5.70;99.90
18934;DHT22;9599;53.706;10.384;2022-12-18T07:58:57;-5.70;99.90
18934;DHT22;9599;53.706;10.384;2022-12-18T08:01:26;-5.70;99.90
18934;DHT22;9599;53.706;10.384;2022-12-18T08:03:54;-5.70;99.90
18934;DHT22;9599;53.706;10.384;2022-12-18T08:06:24;-5.70;99.90
18934;DHT22;9599;53.706;10.384;2022-12-18T08:08:52;-5.70;99.90
18934;DHT22;9599;53.706;10.384;2022-12-18T08:11:22;-5.70;99.90
18934;DHT22;9599;53.706;10.384;2022-12-18T08:13:50;-5.60;99.90
18934;DHT22;9599;53.706;10.384;2022-12-18T08:16:18;-5.60;99.90
18934;DHT22;9599;53.706;10.384;2022-12-18T08:18:47;-5.60;99.90
18934;DHT22;9599;53.706;10.384;2022-12-18T08:21:17;-5.60;99.90
18934;DHT22;9599;53.706;10.384;2022-12-18T08:23:49;-5.60;99.90
18934;DHT22;9599;53.706;10.384;2022-12-18T08:26:18;-5.50;99.90
18934;DHT22;9599;53.706;10.384;2022-12-18T08:28:48;-5.50;99.90
18934;DHT22;9599;53.706;10.384;2022-12-18T08:31:16;-5.50;99.90
18934;DHT22;9599;53.706;10.384;2022-12-18T08:33:45;-5.50;99.90
18934;DHT22;9599;53.706;10.384;2022-12-18T08:36:13;-5.40;99.90
18934;DHT22;9599;53.706;10.384;2022-12-18T08:38:41;-5.40;99.90
18934;DHT22;9599;53.706;10.384;2022-12-18T08:41:11;-5.30;99.90
18934;DHT22;9599;53.706;10.384;2022-12-18T08:43:40;-5.30;99.90
18934;DHT22;9599;53.706;10.384;2022-12-18T08:46:27;-5.30;99.90
18934;DHT22;9599;53.706;10.384;2022-12-18T08:48:55;-5.20;99.90
18934;DHT22;9599;53.706;10.384;2022-12-18T08:51:23;-5.20;99.90
18934;DHT22;9599;53.706;10.384;2022-12-18T08:53:51;-5.10;99.90
18934;DHT22;9599;53.706;10.384;2022-12-18T08:56:20;-5.00;99.90
18934;DHT22;9599;53.706;10.384;2022-12-18T08:58:51;-4.90;99.90
18934;DHT22;9599;53.706;10.384;2022-12-18T09:01:19;-4.90;99.90
18934;DHT22;9599;53.706;10.384;2022-12-18T09:03:47;-4.90;99.90
18934;DHT22;9599;53.706;10.384;2022-12-18T09:06:17;-4.80;99.90
18934;DHT22;9599;53.706;10.384;2022-12-18T09:08:45;-4.80;99.90
18934;DHT22;9599;53.706;10.384;2022-12-18T09:11:14;-4.70;99.90
18934;DHT22;9599;53.706;10.384;2022-12-18T09:13:44;-4.70;99.90
18934;DHT22;9599;53.706;10.384;2022-12-18T09:16:12;-4.70;99.90
18934;DHT22;9599;53.706;10.384;2022-12-18T09:18:40;-4.60;99.90
18934;DHT22;9599;53.706;10.384;2022-12-18T09:21:10;-4.60;99.90
18934;DHT22;9599;53.706;10.384;2022-12-18T09:23:38;-4.50;99.90
18934;DHT22;9599;53.706;10.384;2022-12-18T09:26:07;-4.50;99.90
18934;DHT22;9599;53.706;10.384;2022-12-18T09:28:35;-4.40;99.90
18934;DHT22;9599;53.706;10.384;2022-12-18T09:31:07;-4.40;99.90
18934;DHT22;9599;53.706;10.384;2022-12-18T09:33:35;-4.30;99.90
18934;DHT22;9599;53.706;10.384;2022-12-18T09:36:08;-4.20;99.90
18934;DHT22;9599;53.706;10.384;2022-12-18T09:38:37;-4.30;99.90
18934;DHT22;9599;53.706;10.384;2022-12-18T09:41:17;-4.20;99.90
18934;DHT22;9599;53.706;10.384;2022-12-18T09:43:50;-4.20;99.90
18934;DHT22;9599;53.706;10.384;2022-12-18T09:46:26;-4.10;99.90
18934;DHT22;9599;53.706;10.384;2022-12-18T09:48:59;-4.10;99.90
18934;DHT22;9599;53.706;10.384;2022-12-18T09:51:29;-4.10;99.90
18934;DHT22;9599;53.706;10.384;2022-12-18T09:54:05;-4.00;99.90
18934;DHT22;9599;53.706;10.384;2022-12-18T09:56:38;-3.90;99.90
18934;DHT22;9599;53.706;10.384;2022-12-18T09:59:18;-3.90;99.90
18934;DHT22;9599;53.706;10.384;2022-12-18T10:01:49;-3.80;99.90
18934;DHT22;9599;53.706;10.384;2022-12-18T10:04:18;-3.80;99.90
18934;DHT22;9599;53.706;10.384;2022-12-18T10:06:50;-3.70;99.90
18934;DHT22;9599;53.706;10.384;2022-12-18T10:09:27;-3.70;99.90
18934;DHT22;9599;53.706;10.384;2022-12-18T10:12:04;-3.60;99.90
18934;DHT22;9599;53.706;10.384;2022-12-18T10:14:36;-3.50;99.90
18934;DHT22;9599;53.706;10.384;2022-12-18T10:17:17;-3.50;99.90
18934;DHT22;9599;53.706;10.384;2022-12-18T10:19:51;-3.40;99.90
18934;DHT22;9599;53.706;10.384;2022-12-18T10:22:34;-3.30;99.90
18934;DHT22;9599;53.706;10.384;2022-12-18T10:25:09;-3.30;99.90
18934;DHT22;9599;53.706;10.384;2022-12-18T10:27:42;-3.30;99.90
18934;DHT22;9599;53.706;10.384;2022-12-18T10:30:13;-3.30;99.90
18934;DHT22;9599;53.706;10.384;2022-12-18T10:32:43;-3.30;99.90
18934;DHT22;9599;53.706;10.384;2022-12-18T10:35:17;-3.20;99.90
18934;DHT22;9599;53.706;10.384;2022-12-18T10:38:04;-3.30;99.90
18934;DHT22;9599;53.706;10.384;2022-12-18T10:40:32;-3.00;99.90
18934;DHT22;9599;53.706;10.384;2022-12-18T10:43:05;-2.90;99.90
18934;DHT22;9599;53.706;10.384;2022-12-18T10:45:34;-2.90;99.90
18934;DHT22;9599;53.706;10.384;2022-12-18T10:48:03;-3.00;99.90
18934;DHT22;9599;53.706;10.384;2022-12-18T10:50:34;-3.00;99.90
18934;DHT22;9599;53.706;10.384;2022-12-18T10:53:24;-3.00;99.90
18934;DHT22;9599;53.706;10.384;2022-12-18T10:55:54;-2.90;99.90
18934;DHT22;9599;53.706;10.384;2022-12-18T10:58:25;-2.90;99.90
18934;DHT22;9599;53.706;10.384;2022-12-18T11:01:06;-2.80;99.90
18934;DHT22;9599;53.706;10.384;2022-12-18T11:03:37;-2.80;99.90
18934;DHT22;9599;53.706;10.384;2022-12-18T11:06:08;-2.80;99.90
18934;DHT22;9599;53.706;10.384;2022-12-18T11:08:36;-2.80;99.90
18934;DHT22;9599;53.706;10.384;2022-12-18T11:11:14;-2.80;99.90
18934;DHT22;9599;53.706;10.384;2022-12-18T11:13:58;-2.80;99.90
18934;DHT22;9599;53.706;10.384;2022-12-18T11:16:28;-2.80;99.90
18934;DHT22;9599;53.706;10.384;2022-12-18T11:19:17;-2.70;99.90
18934;DHT22;9599;53.706;10.384;2022-12-18T11:21:48;-2.60;99.90
18934;DHT22;9599;53.706;10.384;2022-12-18T11:24:24;-2.60;99.90
18934;DHT22;9599;53.706;10.384;2022-12-18T11:26:54;-2.60;99.90
18934;DHT22;9599;53.706;10.384;2022-12-18T11:29:32;-2.10;99.90
18934;DHT22;9599;53.706;10.384;2022-12-18T11:32:31;-2.00;99.90
18934;DHT22;9599;53.706;10.384;2022-12-18T11:35:13;-2.10;99.90
18934;DHT22;9599;53.706;10.384;2022-12-18T11:37:45;-2.30;99.90
18934;DHT22;9599;53.706;10.384;2022-12-18T11:40:17;-2.30;99.90
18934;DHT22;9599;53.706;10.384;2022-12-18T11:42:51;-2.40;99.90
18934;DHT22;9599;53.706;10.384;2022-12-18T11:45:27;-2.40;99.90
18934;DHT22;9599;53.706;10.384;2022-12-18T11:48:01;-2.30;99.90
18934;DHT22;9599;53.706;10.384;2022-12-18T11:50:45;-2.30;99.90
18934;DHT22;9599;53.706;10.384;2022-12-18T11:53:14;-2.20;99.90
18934;DHT22;9599;53.706;10.384;2022-12-18T11:55:49;-2.10;99.90
18934;DHT22;9599;53.706;10.384;2022-12-18T11:58:28;-2.00;99.90
18934;DHT22;9599;53.706;10.384;2022-12-18T12:01:06;-1.90;99.90
18934;DHT22;9599;53.706;10.384;2022-12-18T12:03:48;-2.00;99.90
18934;DHT22;9599;53.706;10.384;2022-12-18T12:06:29;-1.90;99.90
18934;DHT22;9599;53.706;10.384;2022-12-18T12:09:06;-1.90;99.90
18934;DHT22;9599;53.706;10.384;2022-12-18T12:11:47;-1.90;99.90
18934;DHT22;9599;53.706;10.384;2022-12-18T12:14:31;-1.90;99.90
18934;DHT22;9599;53.706;10.384;2022-12-18T12:17:05;-1.80;99.90
18934;DHT22;9599;53.706;10.384;2022-12-18T12:19:42;-1.80;99.90
18934;DHT22;9599;53.706;10.384;2022-12-18T12:22:19;-1.90;99.90
18934;DHT22;9599;53.706;10.384;2022-12-18T12:25:01;-2.00;99.90
18934;DHT22;9599;53.706;10.384;2022-12-18T12:27:38;-2.00;99.90
18934;DHT22;9599;53.706;10.384;2022-12-18T12:30:10;-2.10;99.90
18934;DHT22;9599;53.706;10.384;2022-12-18T12:32:49;-2.10;99.90
18934;DHT22;9599;53.706;10.384;2022-12-18T12:35:29;-2.10;99.90
18934;DHT22;9599;53.706;10.384;2022-12-18T12:38:07;-2.10;99.90
18934;DHT22;9599;53.706;10.384;2022-12-18T12:40:38;-2.20;99.90
18934;DHT22;9599;53.706;10.384;2022-12-18T12:43:27;-2.10;99.90
18934;DHT22;9599;53.706;10.384;2022-12-18T12:45:58;-2.10;99.90
18934;DHT22;9599;53.706;10.384;2022-12-18T12:48:35;-2.10;99.90
18934;DHT22;9599;53.706;10.384;2022-12-18T12:51:09;-2.10;99.90
18934;DHT22;9599;53.706;10.384;2022-12-18T12:53:40;-2.10;99.90
18934;DHT22;9599;53.706;10.384;2022-12-18T12:56:11;-2.10;99.90
18934;DHT22;9599;53.706;10.384;2022-12-18T12:58:48;-2.10;99.90
18934;DHT22;9599;53.706;10.384;2022-12-18T13:01:25;-2.10;99.90
18934;DHT22;9599;53.706;10.384;2022-12-18T13:04:03;-2.20;99.90
18934;DHT22;9599;53.706;10.384;2022-12-18T13:06:42;-2.30;99.90
18934;DHT22;9599;53.706;10.384;2022-12-18T13:09:13;-2.30;99.90
18934;DHT22;9599;53.706;10.384;2022-12-18T13:11:45;-2.30;99.90
18934;DHT22;9599;53.706;10.384;2022-12-18T13:14:33;-2.40;99.90
18934;DHT22;9599;53.706;10.384;2022-12-18T13:20:06;-2.30;99.90
18934;DHT22;9599;53.706;10.384;2022-12-18T13:22:37;-2.30;99.90
18934;DHT22;9599;53.706;10.384;2022-12-18T13:25:29;-2.30;99.90
18934;DHT22;9599;53.706;10.384;2022-12-18T13:28:08;-2.40;99.90
18934;DHT22;9599;53.706;10.384;2022-12-18T13:30:43;-2.50;99.90
18934;DHT22;9599;53.706;10.384;2022-12-18T13:33:40;-2.50;99.90
18934;DHT22;9599;53.706;10.384;2022-12-18T13:36:31;-2.50;99.90
18934;DHT22;9599;53.706;10.384;2022-12-18T13:39:34;-2.50;99.90
18934;DHT22;9599;53.706;10.384;2022-12-18T13:45:42;-2.40;99.90
18934;DHT22;9599;53.706;10.384;2022-12-18T13:48:18;-2.40;99.90
18934;DHT22;9599;53.706;10.384;2022-12-18T13:50:50;-2.40;99.90
18934;DHT22;9599;53.706;10.384;2022-12-18T13:53:22;-2.50;99.90
18934;DHT22;9599;53.706;10.384;2022-12-18T13:56:08;-2.50;99.90
18934;DHT22;9599;53.706;10.384;2022-12-18T13:58:39;-2.50;99.90
18934;DHT22;9599;53.706;10.384;2022-12-18T14:01:22;-2.60;99.90
18934;DHT22;9599;53.706;10.384;2022-12-18T14:04:11;-2.60;99.90
18934;DHT22;9599;53.706;10.384;2022-12-18T14:06:39;-2.60;99.90
18934;DHT22;9599;53.706;10.384;2022-12-18T14:09:14;-2.60;99.90
18934;DHT22;9599;53.706;10.384;2022-12-18T14:11:48;-2.70;99.90
18934;DHT22;9599;53.706;10.384;2022-12-18T14:14:18;-2.70;99.90
18934;DHT22;9599;53.706;10.384;2022-12-18T14:16:47;-2.80;99.90
18934;DHT22;9599;53.706;10.384;2022-12-18T14:19:17;-2.80;99.90
18934;DHT22;9599;53.706;10.384;2022-12-18T14:21:47;-2.80;99.90
18934;DHT22;9599;53.706;10.384;2022-12-18T14:24:17;-2.90;99.90
18934;DHT22;9599;53.706;10.384;2022-12-18T14:26:47;-3.00;99.90
18934;DHT22;9599;53.706;10.384;2022-12-18T14:29:25;-2.90;99.90
18934;DHT22;9599;53.706;10.384;2022-12-18T14:32:10;-3.00;99.90
18934;DHT22;9599;53.706;10.384;2022-12-18T14:34:44;-2.90;99.90
18934;DHT22;9599;53.706;10.384;2022-12-18T14:37:14;-3.00;99.90
18934;DHT22;9599;53.706;10.384;2022-12-18T14:39:53;-3.00;99.90
18934;DHT22;9599;53.706;10.384;2022-12-18T14:42:20;-2.90;99.90
18934;DHT22;9599;53.706;10.384;2022-12-18T14:44:48;-3.00;99.90
18934;DHT22;9599;53.706;10.384;2022-12-18T14:47:37;-3.00;99.90
18934;DHT22;9599;53.706;10.384;2022-12-18T14:50:12;-3.00;99.90
18934;DHT22;9599;53.706;10.384;2022-12-18T14:52:41;-3.00;99.90
18934;DHT22;9599;53.706;10.384;2022-12-18T14:55:15;-3.00;99.90
18934;DHT22;9599;53.706;10.384;2022-12-18T14:57:43;-3.00;99.90
18934;DHT22;9599;53.706;10.384;2022-12-18T15:00:16;-3.00;99.90
18934;DHT22;9599;53.706;10.384;2022-12-18T15:02:48;-3.10;99.90
18934;DHT22;9599;53.706;10.384;2022-12-18T15:05:18;-3.10;99.90
18934;DHT22;9599;53.706;10.384;2022-12-18T15:07:47;-3.10;99.90
18934;DHT22;9599;53.706;10.384;2022-12-18T15:10:19;-3.10;99.90
18934;DHT22;9599;53.706;10.384;2022-12-18T15:12:49;-3.10;99.90
18934;DHT22;9599;53.706;10.384;2022-12-18T15:15:46;-3.10;99.90
18934;DHT22;9599;53.706;10.384;2022-12-18T15:18:17;-3.20;99.90
18934;DHT22;9599;53.706;10.384;2022-12-18T15:20:49;-3.30;99.90
18934;DHT22;9599;53.706;10.384;2022-12-18T15:23:19;-3.30;99.90
18934;DHT22;9599;53.706;10.384;2022-12-18T15:25:54;-3.30;99.90
18934;DHT22;9599;53.706;10.384;2022-12-18T15:28:24;-3.30;99.90
18934;DHT22;9599;53.706;10.384;2022-12-18T15:31:23;-3.30;99.90
18934;DHT22;9599;53.706;10.384;2022-12-18T15:34:19;-3.30;99.90
18934;DHT22;9599;53.706;10.384;2022-12-18T15:36:49;-3.40;99.90
18934;DHT22;9599;53.706;10.384;2022-12-18T15:39:17;-3.40;99.90
18934;DHT22;9599;53.706;10.384;2022-12-18T15:41:45;-3.40;99.90
18934;DHT22;9599;53.706;10.384;2022-12-18T15:44:27;-3.40;99.90
18934;DHT22;9599;53.706;10.384;2022-12-18T15:46:55;-3.40;99.90
18934;DHT22;9599;53.706;10.384;2022-12-18T15:49:25;-3.50;99.90
18934;DHT22;9599;53.706;10.384;2022-12-18T15:51:54;-3.50;99.90
18934;DHT22;9599;53.706;10.384;2022-12-18T15:54:24;-3.40;99.90
18934;DHT22;9599;53.706;10.384;2022-12-18T15:57:08;-3.50;99.90
18934;DHT22;9599;53.706;10.384;2022-12-18T15:59:53;-3.50;99.90
18934;DHT22;9599;53.706;10.384;2022-12-18T16:02:22;-3.50;99.90
18934;DHT22;9599;53.706;10.384;2022-12-18T16:04:52;-3.40;99.90
18934;DHT22;9599;53.706;10.384;2022-12-18T16:07:21;-3.50;99.90
18934;DHT22;9599;53.706;10.384;2022-12-18T16:09:51;-3.50;99.90
18934;DHT22;9599;53.706;10.384;2022-12-18T16:12:23;-3.40;99.90
18934;DHT22;9599;53.706;10.384;2022-12-18T16:14:51;-3.40;99.90
18934;DHT22;9599;53.706;10.384;2022-12-18T16:17:19;-3.50;99.90